Time;durP1;ratioP1;P1;durP2;ratioP2;P2;SDS_P1;SDS_P2;PMS_P1;PMS_P2;Temp;Humidity;BMP_temperature;BMP_pressure;BME280_temperature;BME280_humidity;BME280_pressure;Samples;Min_cycle;Max_cycle;Signal;HPM_P1;HPM_P2
2022/08/06 00:02:08;;;;;;;0.70;0.70;;;;;;;22.41;82.53;95830.91;4295410;33;20198;-57
2022/08/06 00:04:33;;;;;;;0.73;0.73;;;;;;;22.37;82.61;95834.66;4271724;33;20190;-56
2022/08/06 00:06:59;;;;;;;0.53;0.53;;;;;;;22.23;82.83;95843.28;4274885;33;20235;-55
2022/08/06 00:09:24;;;;;;;1.27;1.03;;;;;;;22.27;82.50;95846.81;4287229;33;20199;-57
2022/08/06 00:11:49;;;;;;;0.43;0.43;;;;;;;22.22;82.53;95845.19;4282596;33;20202;-54
2022/08/06 00:14:15;;;;;;;1.13;0.70;;;;;;;22.20;82.54;95857.50;4282060;33;20190;-62
2022/08/06 00:16:40;;;;;;;0.33;0.33;;;;;;;22.14;82.71;95865.09;4301500;33;20186;-57
2022/08/06 00:19:06;;;;;;;0.93;0.87;;;;;;;22.01;83.02;95850.16;4292671;33;20205;-57
2022/08/06 00:21:31;;;;;;;0.50;0.50;;;;;;;22.01;83.11;95858.25;4296297;33;20210;-53
2022/08/06 00:23:57;;;;;;;0.83;0.83;;;;;;;21.90;83.54;95858.00;4292529;33;20234;-57
2022/08/06 00:26:24;;;;;;;1.30;0.40;;;;;;;21.97;83.68;95860.06;4301376;33;20257;-56
2022/08/06 00:28:50;;;;;;;0.33;0.33;;;;;;;21.98;83.72;95866.25;4295897;33;20195;-57
2022/08/06 00:31:15;;;;;;;0.50;0.50;;;;;;;21.90;84.15;95871.50;4286322;33;20261;-61
2022/08/06 00:33:41;;;;;;;1.70;0.70;;;;;;;21.94;83.77;95871.59;4278073;33;20195;-57
2022/08/06 00:36:07;;;;;;;0.70;0.70;;;;;;;21.93;83.62;95870.00;4284810;33;20191;-57
2022/08/06 00:38:32;;;;;;;0.80;0.80;;;;;;;22.02;83.10;95857.13;4298534;33;20198;-57
2022/08/06 00:40:58;;;;;;;0.33;0.33;;;;;;;21.90;83.86;95870.72;4291020;33;20254;-56
2022/08/06 00:43:23;;;;;;;0.10;0.10;;;;;;;21.92;83.86;95868.44;4294611;33;20199;-56
2022/08/06 00:45:49;;;;;;;0.37;0.37;;;;;;;22.06;82.89;95852.56;4287174;33;20262;-57
2022/08/06 00:48:14;;;;;;;0.70;0.70;;;;;;;22.05;83.08;95858.31;4289516;33;20195;-56
2022/08/06 00:50:39;;;;;;;1.33;0.50;;;;;;;21.98;83.48;95839.22;4288739;33;20186;-57
2022/08/06 00:53:05;;;;;;;0.83;0.83;;;;;;;21.98;83.29;95847.34;4287099;33;20298;-57
2022/08/06 00:55:31;;;;;;;1.20;0.80;;;;;;;21.97;82.99;95837.66;4278413;33;20206;-57
2022/08/06 00:57:57;;;;;;;0.60;0.60;;;;;;;21.89;83.42;95848.31;4285972;33;20230;-54
2022/08/06 01:00:22;;;;;;;0.93;0.93;;;;;;;21.80;84.01;95845.03;4287357;33;20202;-58
2022/08/06 01:02:47;;;;;;;0.63;0.63;;;;;;;21.76;84.63;95854.19;4287607;33;20190;-55
2022/08/06 01:05:13;;;;;;;0.43;0.43;;;;;;;21.74;84.25;95851.84;4289211;33;20186;-56
2022/08/06 01:07:38;;;;;;;0.50;0.50;;;;;;;21.80;83.46;95863.16;4287032;33;20210;-57
2022/08/06 01:10:04;;;;;;;1.23;0.80;;;;;;;21.72;83.85;95869.53;4273595;33;20179;-57
2022/08/06 01:12:29;;;;;;;0.40;0.40;;;;;;;21.67;83.70;95872.50;4285931;33;20201;-56
2022/08/06 01:14:55;;;;;;;0.37;0.37;;;;;;;21.65;83.86;95859.34;4271464;33;20235;-55
2022/08/06 01:17:20;;;;;;;0.50;0.50;;;;;;;21.69;83.57;95854.81;4287050;33;20274;-56
2022/08/06 01:20:07;;;;;;;0.30;0.30;;;;;;;21.78;83.11;95855.41;4298750;33;20226;-58
2022/08/06 01:22:53;;;;;;;0.50;0.50;;;;;;;21.83;82.96;95849.72;4288332;33;20202;-54
2022/08/06 01:25:36;;;;;;;0.30;0.30;;;;;;;21.62;82.49;95855.41;4284488;33;20199;-56
2022/08/06 01:28:06;;;;;;;0.30;0.30;;;;;;;21.55;82.54;95852.56;4277594;33;20195;-54
2022/08/06 01:30:36;;;;;;;0.10;0.10;;;;;;;21.59;83.03;95850.75;4295726;33;20214;-57
2022/08/06 01:33:17;;;;;;;0.37;0.37;;;;;;;21.48;82.90;95840.81;4285372;33;20199;-56
2022/08/06 01:35:48;;;;;;;0.53;0.53;;;;;;;21.49;82.65;95839.66;4293510;33;20194;-56
2022/08/06 01:38:20;;;;;;;0.30;0.30;;;;;;;21.57;82.58;95839.50;4279687;33;20269;-57
2022/08/06 01:40:48;;;;;;;0.17;0.10;;;;;;;21.54;82.44;95836.72;4279842;33;20230;-57
2022/08/06 01:43:18;;;;;;;0.47;0.47;;;;;;;21.60;82.48;95835.31;4293924;33;20229;-56
2022/08/06 01:45:45;;;;;;;0.63;0.63;;;;;;;21.62;82.50;95833.81;4274050;33;20195;-54
2022/08/06 01:48:19;;;;;;;0.13;0.13;;;;;;;21.61;82.18;95832.25;4287661;33;20202;-57
2022/08/06 01:50:48;;;;;;;0.63;0.63;;;;;;;21.64;81.97;95822.66;4273441;33;20198;-56
2022/08/06 01:53:17;;;;;;;0.37;0.37;;;;;;;21.51;82.13;95826.59;4283672;33;20217;-57
2022/08/06 01:55:48;;;;;;;0.30;0.30;;;;;;;21.58;82.28;95832.19;4286163;33;20190;-57
2022/08/06 01:58:17;;;;;;;0.40;0.40;;;;;;;21.46;82.44;95833.06;4287472;33;20190;-57
2022/08/06 02:00:45;;;;;;;0.50;0.50;;;;;;;21.51;82.76;95826.59;4275198;33;20271;-56
2022/08/06 02:03:17;;;;;;;1.33;0.50;;;;;;;21.46;82.82;95846.56;4295559;33;20201;-54
2022/08/06 02:05:43;;;;;;;0.43;0.43;;;;;;;21.43;82.89;95841.06;4287149;33;20241;-55
2022/08/06 02:08:13;;;;;;;0.50;0.50;;;;;;;21.40;83.30;95844.50;4285642;33;20242;-56
2022/08/06 02:10:40;;;;;;;2.43;0.60;;;;;;;21.32;83.47;95837.34;4285829;33;20210;-55
2022/08/06 02:13:09;;;;;;;0.47;0.47;;;;;;;21.51;82.68;95849.00;4270181;33;20270;-57
2022/08/06 02:15:37;;;;;;;0.20;0.20;;;;;;;21.57;82.50;95857.63;4284707;33;20203;-57
2022/08/06 02:18:06;;;;;;;0.10;0.10;;;;;;;21.65;82.16;95851.22;4286118;33;20187;-54
2022/08/06 02:20:52;;;;;;;4.53;0.37;;;;;;;21.66;81.99;95847.41;4287037;33;20237;-57
2022/08/06 02:23:21;;;;;;;0.53;0.53;;;;;;;21.73;81.53;95850.28;4271282;33;20202;-54
2022/08/06 02:25:49;;;;;;;0.30;0.30;;;;;;;21.67;81.81;95856.28;4286127;33;20221;-57
2022/08/06 02:28:18;;;;;;;0.60;0.60;;;;;;;21.74;81.45;95857.25;4288317;33;20194;-56
2022/08/06 02:30:46;;;;;;;0.17;0.17;;;;;;;21.74;81.56;95859.94;4289712;33;20199;-54
2022/08/06 02:33:13;;;;;;;0.20;0.20;;;;;;;21.80;81.29;95849.66;4291874;33;20191;-54
2022/08/06 02:35:49;;;;;;;0.10;0.10;;;;;;;21.77;81.09;95845.75;4284059;33;20190;-57
2022/08/06 02:38:27;;;;;;;1.33;1.23;;;;;;;21.72;81.75;95848.69;4273053;33;20202;-56
2022/08/06 02:41:20;;;;;;;0.50;0.50;;;;;;;21.75;81.56;95850.72;4284230;33;20202;-58
2022/08/06 02:43:56;;;;;;;0.33;0.33;;;;;;;21.59;82.17;95844.56;4282658;33;20230;-56
2022/08/06 02:46:40;;;;;;;0.40;0.40;;;;;;;21.70;81.77;95850.97;4281543;33;20224;-56
2022/08/06 02:49:19;;;;;;;0.37;0.37;;;;;;;21.55;82.49;95852.56;4288023;33;20385;-56
2022/08/06 02:51:51;;;;;;;0.30;0.30;;;;;;;21.68;81.99;95849.75;4285512;33;20266;-57
2022/08/06 02:54:37;;;;;;;0.50;0.50;;;;;;;21.76;81.44;95848.78;4274831;33;20249;-57
2022/08/06 02:57:06;;;;;;;0.33;0.33;;;;;;;21.67;81.94;95845.47;4276301;33;20195;-56
2022/08/06 02:59:44;;;;;;;0.50;0.50;;;;;;;21.54;82.89;95847.50;4267394;33;20229;-57
2022/08/06 03:02:11;;;;;;;0.33;0.33;;;;;;;21.57;82.53;95841.41;4287746;33;20249;-56
2022/08/06 03:04:40;;;;;;;0.90;0.90;;;;;;;21.52;82.78;95853.25;4274726;33;20190;-56
2022/08/06 03:07:08;;;;;;;0.40;0.40;;;;;;;21.48;83.30;95843.50;4282990;33;20295;-57
2022/08/06 03:09:35;;;;;;;0.20;0.20;;;;;;;21.43;83.72;95836.44;4270259;33;20255;-56
2022/08/06 03:12:02;;;;;;;0.60;0.60;;;;;;;21.52;83.02;95838.97;4282650;33;20191;-54
2022/08/06 03:14:29;;;;;;;17.73;1.40;;;;;;;21.48;83.06;95847.00;4270221;33;20238;-54
2022/08/06 03:16:56;;;;;;;0.47;0.47;;;;;;;21.49;83.65;95845.06;4282897;33;20269;-54
2022/08/06 03:19:22;;;;;;;0.40;0.40;;;;;;;21.44;83.79;95842.62;4289300;33;20187;-53
2022/08/06 03:21:50;;;;;;;0.83;0.83;;;;;;;21.47;83.63;95836.53;4282892;33;20195;-55
2022/08/06 03:24:18;;;;;;;0.90;0.90;;;;;;;21.56;83.37;95842.56;4283068;33;20190;-56
2022/08/06 03:26:45;;;;;;;0.63;0.47;;;;;;;21.53;84.14;95840.53;4273534;33;20208;-56
2022/08/06 03:29:11;;;;;;;0.50;0.50;;;;;;;21.46;84.28;95851.16;4283710;33;20253;-56
2022/08/06 03:31:37;;;;;;;0.83;0.83;;;;;;;21.41;85.04;95848.72;4279418;33;20241;-56
2022/08/06 03:34:03;;;;;;;0.33;0.33;;;;;;;21.52;84.05;95849.78;4284355;33;20273;-57
2022/08/06 03:36:29;;;;;;;1.63;1.53;;;;;;;21.57;83.70;95847.59;4283987;33;20182;-57
2022/08/06 03:38:57;;;;;;;0.83;0.83;;;;;;;;;;4285477;33;20199;-54
2022/08/06 03:41:28;;;;;;;0.70;0.70;;;;;;;21.53;84.29;95859.44;4269957;33;20262;-57
2022/08/06 03:43:53;;;;;;;0.50;0.50;;;;;;;21.58;84.37;95853.78;4271050;33;20213;-55
2022/08/06 03:46:30;;;;;;;0.70;0.70;;;;;;;21.66;83.66;95863.59;4284639;33;20258;-52
2022/08/06 03:49:01;;;;;;;1.20;1.20;;;;;;;21.60;84.14;95862.31;4294164;33;20253;-57
2022/08/06 03:51:28;;;;;;;0.97;0.97;;;;;;;21.64;83.77;95865.09;4283203;33;20211;-56
2022/08/06 03:53:58;;;;;;;1.00;1.00;;;;;;;21.64;83.89;95863.16;4281070;33;20191;-54
2022/08/06 03:56:26;;;;;;;1.00;0.80;;;;;;;21.62;84.20;95865.44;4282576;33;20209;-57
2022/08/06 03:58:53;;;;;;;1.23;1.23;;;;;;;21.57;84.49;95863.03;4284997;33;20205;-56
2022/08/06 04:01:22;;;;;;;1.07;1.07;;;;;;;21.55;84.82;95860.66;4284119;33;20199;-56
2022/08/06 04:03:48;;;;;;;1.13;0.90;;;;;;;21.59;84.53;95866.16;4283393;33;20199;-60
2022/08/06 04:06:17;;;;;;;0.90;0.90;;;;;;;21.67;83.85;95867.88;4292868;33;20194;-56
2022/08/06 04:08:44;;;;;;;1.37;1.37;;;;;;;21.53;84.85;95862.94;4277158;33;20210;-57
2022/08/06 04:11:11;;;;;;;1.00;0.97;;;;;;;21.67;83.64;95872.50;4284752;33;20213;-55
2022/08/06 04:13:37;;;;;;;1.50;1.40;;;;;;;21.68;83.87;95865.97;4285836;33;20194;-55
2022/08/06 04:16:07;;;;;;;1.03;1.03;;;;;;;21.52;85.03;95879.47;4287392;33;20199;-57
2022/08/06 04:18:35;;;;;;;1.03;1.03;;;;;;;21.63;84.17;95877.81;4271088;33;20214;-55
2022/08/06 04:21:05;;;;;;;1.23;1.23;;;;;;;21.50;85.65;95881.75;4291536;33;20241;-57
2022/08/06 04:23:31;;;;;;;0.83;0.83;;;;;;;;;;4288298;33;20213;-56
2022/08/06 04:26:01;;;;;;;1.60;1.50;;;;;;;21.57;84.38;95890.81;4271364;33;20239;-57
2022/08/06 04:28:28;;;;;;;1.17;1.13;;;;;;;21.54;84.99;95882.63;4290372;33;20307;-56
2022/08/06 04:30:55;;;;;;;4.63;1.70;;;;;;;21.53;85.21;95883.75;4275100;33;20227;-57
2022/08/06 04:33:24;;;;;;;1.47;1.37;;;;;;;21.29;86.29;95903.59;4271618;33;20202;-57
2022/08/06 04:35:50;;;;;;;1.30;1.30;;;;;;;21.50;85.01;95906.03;4271145;33;20195;-57
2022/08/06 04:38:20;;;;;;;4.47;2.43;;;;;;;21.45;85.07;95906.28;4285436;33;20195;-62
2022/08/06 04:40:46;;;;;;;3.60;1.87;;;;;;;21.51;85.27;95907.63;4284037;33;20191;-57
2022/08/06 04:43:12;;;;;;;2.07;1.97;;;;;;;21.47;85.13;95910.22;4284945;33;20195;-54
2022/08/06 04:45:40;;;;;;;3.03;2.83;;;;;;;21.53;84.79;95916.94;4271518;33;20209;-56
2022/08/06 04:48:09;;;;;;;2.70;2.60;;;;;;;21.48;84.29;95924.50;4293295;33;20292;-55
2022/08/06 04:50:35;;;;;;;3.77;3.53;;;;;;;21.39;84.39;95918.50;4283729;33;20224;-57
2022/08/06 04:53:06;;;;;;;2.50;2.40;;;;;;;21.35;84.62;95925.72;4284369;33;20194;-57
2022/08/06 04:55:31;;;;;;;1.60;1.50;;;;;;;21.35;84.82;95921.13;4280941;33;20200;-57
2022/08/06 04:57:57;;;;;;;2.80;2.70;;;;;;;21.30;84.30;95923.28;4279064;33;20222;-55
2022/08/06 05:00:22;;;;;;;2.17;2.07;;;;;;;21.31;84.30;95930.25;4271254;33;20182;-55
2022/08/06 05:02:47;;;;;;;1.97;1.90;;;;;;;21.24;84.18;95931.63;4281754;33;20254;-56
2022/08/06 05:05:16;;;;;;;1.73;1.63;;;;;;;21.38;83.80;95935.84;4284868;33;20191;-58
2022/08/06 05:07:44;;;;;;;2.07;2.03;;;;;;;21.34;83.50;95932.25;4278755;33;20195;-56
2022/08/06 05:10:09;;;;;;;3.33;2.83;;;;;;;21.30;84.18;95934.06;4284848;33;20197;-56
2022/08/06 05:12:43;;;;;;;2.80;2.70;;;;;;;21.27;83.74;95935.56;4285623;33;20349;-54
2022/08/06 05:15:22;;;;;;;1.40;1.40;;;;;;;21.27;83.68;95940.94;4287084;33;20187;-57
2022/08/06 05:18:28;;;;;;;1.80;1.70;;;;;;;21.18;83.59;95949.19;4287095;33;20236;-55
2022/08/06 05:20:55;;;;;;;1.40;1.40;;;;;;;21.19;83.45;95949.97;4270212;33;20198;-57
2022/08/06 05:23:26;;;;;;;1.40;1.30;;;;;;;21.14;83.09;95959.09;4285013;33;20201;-55
2022/08/06 05:25:52;;;;;;;1.87;1.77;;;;;;;21.12;83.42;95961.34;4276460;33;20230;-57
2022/08/06 05:28:17;;;;;;;1.13;1.13;;;;;;;21.04;83.82;95970.38;4286741;33;20234;-53
2022/08/06 05:30:48;;;;;;;1.53;1.43;;;;;;;21.02;83.88;95958.34;4302308;33;20225;-57
2022/08/06 05:33:26;;;;;;;1.20;1.20;;;;;;;20.81;84.96;95967.44;4292487;33;20203;-57
2022/08/06 05:35:53;;;;;;;1.13;1.13;;;;;;;20.92;83.80;95978.53;4286156;33;20194;-56
2022/08/06 05:38:19;;;;;;;2.17;1.40;;;;;;;20.89;83.89;95968.44;4291654;33;20233;-56
2022/08/06 05:40:44;;;;;;;2.00;1.80;;;;;;;20.83;83.56;95975.19;4299712;33;20217;-57
2022/08/06 05:43:10;;;;;;;1.63;1.53;;;;;;;20.89;83.36;95990.00;4288358;33;20190;-54
2022/08/06 05:45:38;;;;;;;0.97;0.97;;;;;;;20.77;83.87;95984.66;4286677;33;20288;-56
2022/08/06 05:48:05;;;;;;;2.30;1.57;;;;;;;20.68;84.92;95984.00;4273064;33;20191;-56
2022/08/06 05:50:34;;;;;;;1.27;1.27;;;;;;;20.71;85.06;95983.31;4285461;33;20201;-56
2022/08/06 05:53:06;;;;;;;1.67;1.57;;;;;;;20.86;84.37;95994.16;4297624;33;20191;-55
2022/08/06 05:55:39;;;;;;;2.90;0.97;;;;;;;20.78;84.23;95991.63;4290044;33;20190;-55
2022/08/06 05:58:12;;;;;;;1.13;1.13;;;;;;;20.69;83.92;95993.66;4286415;33;20191;-57
2022/08/06 06:00:39;;;;;;;0.83;0.83;;;;;;;20.78;83.62;95999.72;4286106;33;20191;-56
2022/08/06 06:03:07;;;;;;;1.30;1.20;;;;;;;20.74;82.80;96015.00;4285208;33;20194;-55
2022/08/06 06:05:36;;;;;;;0.80;0.80;;;;;;;20.79;82.27;96015.53;4290053;33;20187;-55
2022/08/06 06:08:02;;;;;;;1.13;1.13;;;;;;;20.70;81.61;96017.59;4277916;33;20191;-55
2022/08/06 06:10:28;;;;;;;0.87;0.87;;;;;;;20.65;81.27;96023.22;4284505;33;20226;-55
2022/08/06 06:12:56;;;;;;;0.47;0.47;;;;;;;20.45;81.71;96024.94;4295101;33;20225;-57
2022/08/06 06:15:21;;;;;;;1.17;1.17;;;;;;;20.40;81.17;96033.25;4285515;33;20209;-57
2022/08/06 06:18:08;;;;;;;1.10;1.10;;;;;;;20.22;82.09;96032.66;4286146;33;20179;-56
2022/08/06 06:20:52;;;;;;;0.63;0.63;;;;;;;20.32;81.99;96036.84;4295963;33;20199;-56
2022/08/06 06:23:33;;;;;;;2.20;1.97;;;;;;;20.41;81.76;96034.03;4283111;33;20275;-55
2022/08/06 06:26:10;;;;;;;0.50;0.50;;;;;;;20.28;81.51;96043.22;4285665;33;20190;-56
2022/08/06 06:28:41;;;;;;;0.50;0.50;;;;;;;20.21;82.42;96041.88;4285558;33;20394;-57
2022/08/06 06:31:27;;;;;;;1.33;1.20;;;;;;;20.22;82.06;96048.03;4285682;33;20205;-56
2022/08/06 06:34:08;;;;;;;0.63;0.63;;;;;;;20.14;81.65;96046.25;4295180;33;20206;-57
2022/08/06 06:36:59;;;;;;;0.57;0.57;;;;;;;20.08;82.11;96048.38;4271716;33;20190;-56
2022/08/06 06:39:31;;;;;;;1.70;1.53;;;;;;;20.06;80.63;96049.84;4262177;33;20229;-55
2022/08/06 06:42:06;;;;;;;1.23;1.23;;;;;;;19.81;81.75;96052.50;4284303;33;20198;-56
2022/08/06 06:44:41;;;;;;;0.63;0.63;;;;;;;19.98;81.36;96050.72;4274143;33;20202;-56
2022/08/06 06:47:22;;;;;;;1.27;1.27;;;;;;;19.93;80.82;96045.56;4283537;33;20333;-57
2022/08/06 06:49:59;;;;;;;1.17;1.17;;;;;;;19.99;80.54;96058.47;4285087;33;20187;-57
2022/08/06 06:52:31;;;;;;;0.90;0.90;;;;;;;20.05;80.37;96059.03;4285871;33;20206;-55
2022/08/06 06:55:24;;;;;;;0.40;0.40;;;;;;;20.07;80.24;96060.28;4284571;33;20202;-57
2022/08/06 06:58:01;;;;;;;1.60;1.50;;;;;;;20.11;79.60;96063.09;4278362;33;20191;-55
2022/08/06 07:00:27;;;;;;;1.10;1.00;;;;;;;20.16;79.18;96068.28;4280840;33;20186;-55
2022/08/06 07:02:55;;;;;;;0.90;0.90;;;;;;;20.10;79.78;96066.91;4272804;33;20197;-57
2022/08/06 07:05:22;;;;;;;0.67;0.67;;;;;;;20.09;79.15;96066.13;4291873;33;20201;-57
2022/08/06 07:07:50;;;;;;;1.07;1.07;;;;;;;20.04;78.97;96069.03;4280690;33;20256;-56
2022/08/06 07:10:18;;;;;;;0.83;0.83;;;;;;;20.09;78.41;96068.03;4283759;33;20304;-62
2022/08/06 07:12:45;;;;;;;0.63;0.63;;;;;;;20.05;79.50;96069.81;4293455;33;20264;-54
2022/08/06 07:15:12;;;;;;;0.67;0.67;;;;;;;19.98;79.63;96075.75;4283797;33;20210;-54
2022/08/06 07:17:39;;;;;;;0.40;0.40;;;;;;;19.84;79.59;96069.91;4292173;33;20190;-56
2022/08/06 07:20:10;;;;;;;2.00;0.90;;;;;;;19.74;80.63;96071.13;4285197;33;20238;-57
2022/08/06 07:22:39;;;;;;;0.80;0.80;;;;;;;19.72;79.89;96073.38;4283573;33;20266;-55
2022/08/06 07:25:06;;;;;;;0.67;0.67;;;;;;;19.67;80.64;96076.25;4272293;33;20221;-57
2022/08/06 07:27:40;;;;;;;0.80;0.80;;;;;;;19.68;80.68;96072.44;4287737;33;20203;-56
2022/08/06 07:30:08;;;;;;;4.70;1.87;;;;;;;19.81;80.48;96079.44;4285264;33;20286;-54
2022/08/06 07:32:34;;;;;;;1.10;1.10;;;;;;;20.15;79.64;96077.47;4274381;33;20229;-55
2022/08/06 07:35:02;;;;;;;1.43;1.33;;;;;;;20.09;79.28;96086.91;4283487;33;20262;-55
2022/08/06 07:37:29;;;;;;;1.63;0.93;;;;;;;19.99;79.49;96081.94;4275548;33;20264;-56
2022/08/06 07:39:56;;;;;;;1.27;1.17;;;;;;;20.05;79.05;96081.38;4285716;33;20195;-55
2022/08/06 07:42:24;;;;;;;0.80;0.80;;;;;;;19.76;80.19;96086.94;4287671;33;20217;-56
2022/08/06 07:44:53;;;;;;;13.77;5.07;;;;;;;19.98;80.44;96089.22;4275934;33;20241;-56
2022/08/06 07:47:22;;;;;;;1.93;1.83;;;;;;;20.30;79.75;96097.59;4286041;33;20222;-56
2022/08/06 07:49:56;;;;;;;1.50;1.50;;;;;;;20.07;79.44;96099.91;4274324;33;20194;-56
2022/08/06 07:52:22;;;;;;;1.23;1.23;;;;;;;19.90;80.49;96098.19;4275067;33;20199;-56
2022/08/06 07:54:49;;;;;;;1.77;1.67;;;;;;;20.09;79.51;96094.97;4279917;33;20289;-57
2022/08/06 07:57:16;;;;;;;1.90;1.80;;;;;;;20.13;79.52;96098.59;4288255;33;20245;-55
2022/08/06 07:59:42;;;;;;;1.13;1.13;;;;;;;20.17;78.64;96104.84;4285350;33;20191;-54
2022/08/06 08:02:10;;;;;;;1.10;1.10;;;;;;;19.93;79.61;96102.94;4285203;33;20281;-56
2022/08/06 08:07:24;;;;;;;1.23;1.23;;;;;;;20.02;79.17;96110.91;4289977;33;20205;-57
2022/08/06 08:09:51;;;;;;;1.20;1.20;;;;;;;20.13;78.64;96110.16;4289262;33;20195;-56
2022/08/06 08:12:18;;;;;;;0.63;0.63;;;;;;;20.16;78.27;96111.38;4271655;33;20213;-55
2022/08/06 08:14:45;;;;;;;1.10;1.10;;;;;;;20.28;78.29;96116.78;4277946;33;20198;-55
2022/08/06 08:17:14;;;;;;;1.00;1.00;;;;;;;20.44;77.91;96112.31;4281692;33;20198;-56
2022/08/06 08:19:40;;;;;;;1.80;1.30;;;;;;;20.38;77.86;96120.97;4283412;33;20245;-56
2022/08/06 08:22:09;;;;;;;1.23;1.23;;;;;;;20.41;78.25;96115.69;4282845;33;20234;-54
2022/08/06 08:24:36;;;;;;;1.70;1.60;;;;;;;19.81;78.62;96119.81;4278301;33;20190;-57
2022/08/06 08:27:08;;;;;;;1.43;1.43;;;;;;;19.45;80.01;96116.97;4272210;33;20259;-54
2022/08/06 08:29:34;;;;;;;1.83;1.73;;;;;;;19.60;80.53;96124.47;4285668;33;20243;-55
2022/08/06 08:32:00;;;;;;;1.30;1.30;;;;;;;19.76;79.84;96125.41;4285372;33;20218;-53
2022/08/06 08:34:26;;;;;;;1.30;1.30;;;;;;;19.76;79.49;96124.62;4283612;33;20229;-56
2022/08/06 08:36:51;;;;;;;2.00;1.90;;;;;;;19.64;79.55;96122.69;4279459;33;20191;-54
2022/08/06 08:39:17;;;;;;;1.57;1.57;;;;;;;19.89;79.26;96124.34;4287289;33;20238;-56
2022/08/06 08:42:08;;;;;;;1.47;1.47;;;;;;;19.79;79.24;96127.44;4286037;33;20199;-55
2022/08/06 08:44:34;;;;;;;3.37;3.17;;;;;;;19.90;79.68;96134.00;4274174;33;20261;-56
2022/08/06 08:47:00;;;;;;;2.37;2.17;;;;;;;19.64;80.05;96130.75;4282715;33;20269;-55
2022/08/06 08:49:45;;;;;;;2.10;2.00;;;;;;;19.56;80.30;96134.31;4284979;33;20187;-55
2022/08/06 08:52:23;;;;;;;2.30;2.20;;;;;;;19.38;81.14;96132.84;4275894;33;20254;-56
2022/08/06 08:54:52;;;;;;;2.00;1.90;;;;;;;19.31;81.51;96135.31;4284568;33;20301;-54
2022/08/06 08:57:18;;;;;;;2.23;2.13;;;;;;;19.51;80.83;96132.62;4284261;33;20206;-56
2022/08/06 08:59:44;;;;;;;1.10;1.10;;;;;;;19.38;81.22;96140.94;4287642;33;20187;-56
2022/08/06 09:02:12;;;;;;;1.83;1.77;;;;;;;19.37;81.26;96136.66;4292642;33;20198;-55
2022/08/06 09:04:38;;;;;;;1.53;1.53;;;;;;;19.30;81.58;96145.28;4297813;33;20186;-54
2022/08/06 09:07:04;;;;;;;1.50;1.50;;;;;;;19.50;81.07;96149.12;4287480;33;20206;-56
2022/08/06 09:09:32;;;;;;;3.17;2.97;;;;;;;19.18;81.16;96151.37;4287506;33;20210;-56
2022/08/06 09:11:58;;;;;;;1.90;1.80;;;;;;;19.27;81.26;96153.22;4286539;33;20215;-56
2022/08/06 09:14:24;;;;;;;2.03;1.70;;;;;;;19.52;81.09;96153.06;4286352;33;20233;-57
2022/08/06 09:16:52;;;;;;;2.03;2.00;;;;;;;19.61;80.36;96152.97;4288761;33;20190;-55
2022/08/06 09:19:17;;;;;;;1.80;1.80;;;;;;;19.42;80.94;96166.87;4294179;33;20216;-57
2022/08/06 09:21:43;;;;;;;1.50;1.50;;;;;;;19.60;80.67;96162.16;4288598;33;20195;-57
2022/08/06 09:24:09;;;;;;;1.77;1.77;;;;;;;19.88;79.71;96163.16;4272059;33;20222;-56
2022/08/06 09:26:34;;;;;;;3.27;2.97;;;;;;;20.00;79.30;96164.31;4284554;33;20217;-56
2022/08/06 09:29:00;;;;;;;1.40;1.40;;;;;;;20.12;78.59;96161.66;4273950;33;20254;-55
2022/08/06 09:31:26;;;;;;;2.33;2.23;;;;;;;20.15;78.32;96163.69;4277385;33;20228;-55
2022/08/06 09:34:01;;;;;;;3.33;3.20;;;;;;;20.09;78.64;96168.50;4283329;33;20203;-53
2022/08/06 09:36:28;;;;;;;2.07;1.97;;;;;;;19.91;78.85;96167.13;4285028;33;20213;-59
2022/08/06 09:38:59;;;;;;;2.03;1.77;;;;;;;19.99;79.24;96168.13;4275905;33;20187;-55
2022/08/06 09:41:30;;;;;;;1.77;1.77;;;;;;;20.16;78.22;96167.97;4274929;33;20242;-54
2022/08/06 09:43:57;;;;;;;1.93;1.83;;;;;;;19.87;79.20;96172.38;4282863;33;20191;-56
2022/08/06 09:46:39;;;;;;;2.20;2.10;;;;;;;19.88;78.89;96173.94;4284860;33;20194;-55
2022/08/06 09:49:05;;;;;;;2.00;1.90;;;;;;;20.00;78.33;96175.09;4286977;33;20175;-57
2022/08/06 09:51:34;;;;;;;2.50;2.30;;;;;;;19.98;78.60;96161.94;4297119;33;20270;-54
2022/08/06 09:54:01;;;;;;;2.83;2.63;;;;;;;20.13;78.42;96168.63;4285314;33;20190;-55
2022/08/06 09:56:27;;;;;;;2.97;2.77;;;;;;;19.85;78.95;96166.53;4286406;33;20291;-56
2022/08/06 09:59:09;;;;;;;3.00;2.90;;;;;;;20.01;78.58;96172.06;4292401;33;20186;-56
2022/08/06 10:01:45;;;;;;;2.17;2.07;;;;;;;19.95;78.94;96172.63;4273484;33;20201;-56
2022/08/06 10:04:31;;;;;;;1.90;1.87;;;;;;;19.93;79.43;96170.25;4287871;33;20186;-55
2022/08/06 10:07:01;;;;;;;2.17;2.07;;;;;;;19.87;79.36;96172.38;4285301;33;20194;-54
2022/08/06 10:09:28;;;;;;;2.23;2.13;;;;;;;19.64;80.61;96168.47;4272877;33;20202;-52
2022/08/06 10:11:54;;;;;;;2.63;2.40;;;;;;;19.63;80.73;96172.28;4283990;33;20203;-56
2022/08/06 10:14:32;;;;;;;2.83;2.63;;;;;;;19.46;81.42;96172.38;4285083;33;20213;-54
2022/08/06 10:17:07;;;;;;;1.83;1.83;;;;;;;19.69;80.96;96175.56;4283187;33;20186;-56
2022/08/06 10:19:34;;;;;;;3.23;2.83;;;;;;;19.71;79.81;96168.72;4271162;33;20245;-56
2022/08/06 10:22:06;;;;;;;2.40;1.90;;;;;;;19.29;82.45;96172.53;4289048;33;20222;-54
2022/08/06 10:24:37;;;;;;;1.73;1.67;;;;;;;19.72;81.12;96178.38;4289793;33;20214;-53
2022/08/06 10:27:10;;;;;;;1.83;1.77;;;;;;;19.86;79.92;96176.19;4275708;33;20209;-56
2022/08/06 10:29:41;;;;;;;1.30;1.30;;;;;;;19.93;79.92;96170.25;4270110;33;21500;-56
2022/08/06 10:32:12;;;;;;;1.20;1.20;;;;;;;20.15;78.98;96174.47;4282189;33;20266;-56
2022/08/06 10:34:39;;;;;;;2.30;2.07;;;;;;;20.18;78.30;96176.47;4283961;33;20201;-54
2022/08/06 10:37:07;;;;;;;2.17;2.07;;;;;;;20.05;78.87;96181.06;4269989;33;20201;-57
2022/08/06 10:39:39;;;;;;;1.93;1.83;;;;;;;20.16;78.28;96178.75;4271404;33;20187;-56
2022/08/06 10:42:07;;;;;;;1.50;1.50;;;;;;;20.16;78.43;96189.53;4293718;33;20195;-57
2022/08/06 10:44:36;;;;;;;1.27;1.27;;;;;;;19.83;79.03;96190.31;4287762;33;20198;-56
2022/08/06 10:47:02;;;;;;;1.43;1.33;;;;;;;19.87;79.65;96183.16;4286132;33;20191;-56
2022/08/06 10:49:29;;;;;;;1.43;1.43;;;;;;;19.74;79.83;96181.53;4284471;33;20186;-57
2022/08/06 10:51:56;;;;;;;1.67;1.57;;;;;;;19.69;79.95;96181.72;4294616;33;20206;-57
2022/08/06 10:54:22;;;;;;;1.87;1.77;;;;;;;20.00;79.33;96181.25;4294131;33;20194;-56
2022/08/06 10:56:48;;;;;;;0.93;0.93;;;;;;;20.07;78.94;96183.44;4285303;33;20234;-55
2022/08/06 10:59:15;;;;;;;1.30;1.30;;;;;;;20.20;78.52;96179.62;4295387;33;20209;-53
2022/08/06 11:02:02;;;;;;;1.50;1.50;;;;;;;20.25;78.66;96191.00;4275547;33;20198;-55
2022/08/06 11:04:33;;;;;;;1.17;1.17;;;;;;;19.69;80.42;96187.12;4284378;33;20194;-55
2022/08/06 11:07:17;;;;;;;1.73;1.70;;;;;;;19.89;79.89;96182.81;4284369;33;20246;-55
2022/08/06 11:10:05;;;;;;;1.17;1.17;;;;;;;19.87;79.68;96183.16;4281689;33;20195;-54
2022/08/06 11:13:04;;;;;;;2.23;1.80;;;;;;;19.95;79.93;96175.31;4278510;33;20241;-55
2022/08/06 11:15:34;;;;;;;1.70;1.70;;;;;;;20.05;79.90;96177.59;4271683;33;20245;-55
2022/08/06 11:18:05;;;;;;;1.20;1.20;;;;;;;20.03;79.90;96169.03;4287186;33;20198;-52
2022/08/06 11:20:33;;;;;;;2.23;2.13;;;;;;;19.97;78.70;96173.06;4273088;33;20212;-56
2022/08/06 11:23:10;;;;;;;1.63;1.53;;;;;;;20.05;79.27;96167.59;4287365;33;20266;-54
2022/08/06 11:25:47;;;;;;;1.07;1.07;;;;;;;19.96;78.29;96174.19;4279887;33;21491;-57
2022/08/06 11:28:15;;;;;;;0.87;0.87;;;;;;;20.15;78.74;96169.09;4282547;33;20198;-57
2022/08/06 11:30:50;;;;;;;1.03;1.03;;;;;;;20.32;78.27;96174.28;4274427;33;20215;-57
2022/08/06 11:33:41;;;;;;;1.67;1.57;;;;;;;20.47;77.64;96168.28;4284910;33;20190;-57
2022/08/06 11:36:23;;;;;;;1.93;1.77;;;;;;;20.53;77.36;96163.44;4276438;33;20261;-57
2022/08/06 11:38:55;;;;;;;2.07;1.97;;;;;;;20.33;77.86;96162.38;4283622;33;20238;-57
2022/08/06 11:41:24;;;;;;;1.97;1.87;;;;;;;20.30;78.13;96162.25;4271624;33;20186;-56
2022/08/06 11:43:52;;;;;;;2.03;1.93;;;;;;;20.23;78.22;96155.50;4284537;33;20254;-53
2022/08/06 11:46:26;;;;;;;1.03;1.03;;;;;;;20.15;79.09;96151.03;4276832;33;20249;-57
2022/08/06 11:49:02;;;;;;;1.57;1.53;;;;;;;20.42;78.13;96148.81;4283670;33;20204;-57
2022/08/06 11:51:48;;;;;;;1.77;1.67;;;;;;;20.55;77.49;96153.91;4286399;33;20186;-57